createdAt,value
2018-01-14T00:00:05.358Z,26.37
2018-01-14T00:02:32.900Z,33.70
2018-01-14T00:05:00.465Z,27.30
2018-01-14T00:07:28.764Z,32.60
2018-01-14T00:09:56.330Z,26.50
2018-01-14T00:12:24.647Z,28.60
2018-01-14T00:14:52.986Z,27.93
2018-01-14T00:17:20.532Z,23.93
2018-01-14T00:19:48.871Z,25.10
2018-01-14T00:22:17.425Z,25.50
2018-01-14T00:24:44.970Z,23.73
2018-01-14T00:27:12.531Z,30.00
2018-01-14T00:29:40.072Z,24.17
2018-01-14T00:32:07.641Z,36.43
2018-01-14T00:34:35.386Z,28.80
2018-01-14T00:37:02.947Z,25.70
2018-01-14T00:39:31.253Z,30.17
2018-01-14T00:41:59.584Z,29.13
2018-01-14T00:44:27.158Z,25.33
2018-01-14T00:46:54.755Z,28.80
2018-01-14T00:49:22.333Z,29.63
2018-01-14T00:51:49.895Z,36.03
2018-01-14T00:54:18.195Z,29.90
2018-01-14T00:56:46.529Z,30.20
2018-01-14T00:59:14.083Z,31.80
2018-01-14T01:01:41.666Z,26.30
2018-01-14T01:04:09.204Z,29.80
2018-01-14T01:06:36.791Z,25.77
2018-01-14T01:09:04.363Z,31.43
2018-01-14T01:11:31.893Z,34.03
2018-01-14T01:14:00.217Z,28.90
2018-01-14T01:16:27.760Z,27.30
2018-01-14T01:18:55.331Z,27.50
2018-01-14T01:21:22.872Z,30.70
2018-01-14T01:23:50.445Z,33.27
2018-01-14T01:26:17.999Z,33.57
2018-01-14T01:28:46.350Z,28.80
2018-01-14T01:31:13.888Z,31.37
2018-01-14T01:33:41.441Z,26.30
2018-01-14T01:36:09.001Z,38.87
2018-01-14T01:38:36.566Z,28.23
2018-01-14T01:41:04.123Z,28.43
2018-01-14T01:43:31.686Z,29.60
2018-01-14T01:45:59.910Z,41.20
2018-01-14T01:48:27.478Z,32.30
2018-01-14T01:50:55.014Z,36.00
2018-01-14T01:53:22.569Z,33.83
2018-01-14T01:55:50.868Z,30.97
2018-01-14T01:58:19.187Z,33.03
2018-01-14T02:00:46.738Z,32.57
2018-01-14T02:03:14.294Z,32.93
2018-01-14T02:05:41.851Z,30.07
2018-01-14T02:08:09.442Z,29.37
2018-01-14T02:10:37.021Z,35.00
2018-01-14T02:13:04.572Z,39.87
2018-01-14T02:15:32.906Z,29.30
2018-01-14T02:18:00.439Z,30.13
2018-01-14T02:20:27.999Z,36.30
2018-01-14T02:22:55.551Z,33.33
2018-01-14T02:25:23.111Z,27.43
2018-01-14T02:27:51.412Z,30.50
2018-01-14T02:30:19.739Z,40.87
2018-01-14T02:32:47.281Z,31.00
2018-01-14T02:35:14.835Z,35.80
2018-01-14T02:37:42.375Z,33.40
2018-01-14T02:40:09.941Z,38.97
2018-01-14T02:42:38.260Z,31.93
2018-01-14T02:45:06.598Z,30.70
2018-01-14T02:47:34.153Z,33.33
2018-01-14T02:50:01.720Z,32.90
2018-01-14T02:52:33.302Z,36.10
2018-01-14T02:55:01.645Z,39.33
2018-01-14T02:57:29.187Z,37.70
2018-01-14T02:59:57.524Z,32.47
2018-01-14T03:02:25.097Z,28.47
2018-01-14T03:04:52.653Z,46.33
2018-01-14T03:07:20.985Z,33.10
2018-01-14T03:09:48.547Z,26.60
2018-01-14T03:12:16.875Z,32.63
2018-01-14T03:14:44.424Z,37.80
2018-01-14T03:17:12.752Z,41.37
2018-01-14T03:19:40.298Z,41.23
2018-01-14T03:22:07.869Z,32.40
2018-01-14T03:24:35.416Z,36.97
2018-01-14T03:27:02.980Z,36.07
2018-01-14T03:29:30.531Z,31.90
2018-01-14T03:31:58.111Z,34.13
2018-01-14T03:34:25.664Z,32.73
2018-01-14T03:36:53.227Z,39.63
2018-01-14T03:39:20.796Z,35.80
2018-01-14T03:41:49.127Z,36.57
2018-01-14T03:44:16.700Z,34.87
2018-01-14T03:46:44.260Z,41.00
2018-01-14T03:49:12.588Z,33.93
2018-01-14T03:51:40.140Z,33.97
2018-01-14T03:54:08.477Z,30.07
2018-01-14T03:56:36.020Z,36.43
2018-01-14T03:59:03.593Z,40.07
2018-01-14T04:01:31.136Z,31.73
2018-01-14T04:03:58.696Z,31.40
2018-01-14T04:06:26.261Z,37.00
2018-01-14T04:08:54.601Z,32.43
2018-01-14T04:11:22.171Z,37.60
2018-01-14T04:13:49.743Z,36.83
2018-01-14T04:16:17.302Z,32.10
2018-01-14T04:18:44.879Z,36.47
2018-01-14T04:21:12.429Z,33.17
2018-01-14T04:23:40.017Z,34.50
2018-01-14T04:26:07.566Z,43.87
2018-01-14T04:28:35.125Z,41.90
2018-01-14T04:31:02.697Z,37.80
2018-01-14T04:33:30.693Z,36.20
2018-01-14T04:35:58.854Z,35.83
2018-01-14T04:38:26.441Z,33.50
2018-01-14T04:40:54.009Z,34.90
2018-01-14T04:43:21.566Z,38.83
2018-01-14T04:45:49.916Z,32.20
2018-01-14T04:48:18.232Z,30.10
2018-01-14T04:50:45.817Z,35.87
2018-01-14T04:53:13.364Z,37.73
2018-01-14T04:55:40.944Z,35.73
2018-01-14T04:58:08.497Z,36.37
2018-01-14T05:00:36.827Z,34.37
2018-01-14T05:03:04.368Z,38.43
2018-01-14T05:05:31.928Z,36.50
2018-01-14T05:07:59.506Z,34.70
2018-01-14T05:10:27.075Z,36.60
2018-01-14T05:12:54.679Z,38.80
2018-01-14T05:15:22.220Z,37.90
2018-01-14T05:17:50.551Z,37.03
2018-01-14T05:20:18.102Z,45.63
2018-01-14T05:22:46.435Z,37.53
2018-01-14T05:25:13.993Z,34.03
2018-01-14T05:27:42.323Z,38.40
2018-01-14T05:30:09.869Z,34.00
2018-01-14T05:32:38.209Z,43.00
2018-01-14T05:35:05.766Z,38.10
2018-01-14T05:37:34.091Z,36.77
2018-01-14T05:40:01.650Z,34.47
2018-01-14T05:42:29.987Z,37.83
2018-01-14T05:44:57.548Z,42.57
2018-01-14T05:47:25.116Z,39.13
2018-01-14T05:49:52.661Z,37.10
2018-01-14T05:52:20.208Z,35.10
2018-01-14T05:54:47.786Z,31.33
2018-01-14T05:57:15.333Z,39.43
2018-01-14T05:59:42.897Z,39.10
2018-01-14T06:02:10.440Z,37.87
2018-01-14T06:04:38.009Z,34.20
2018-01-14T06:07:06.315Z,37.97
2018-01-14T06:09:33.881Z,33.30
2018-01-14T06:12:02.192Z,32.37
2018-01-14T06:14:30.526Z,34.87
2018-01-14T06:16:58.087Z,40.63
2018-01-14T06:19:25.676Z,43.30
2018-01-14T06:21:53.224Z,35.23
2018-01-14T06:24:20.788Z,36.43
2018-01-14T06:26:48.341Z,32.87
2018-01-14T06:29:15.889Z,35.23
2018-01-14T06:31:44.219Z,34.50
2018-01-14T06:34:11.770Z,32.77
2018-01-14T06:36:40.109Z,30.27
2018-01-14T06:39:07.656Z,26.50
2018-01-14T06:41:35.989Z,35.87
2018-01-14T06:44:03.537Z,41.90
2018-01-14T06:46:31.111Z,35.10
2018-01-14T06:48:58.656Z,33.90
2018-01-14T06:51:26.224Z,40.27
2018-01-14T06:53:53.782Z,33.67
2018-01-14T06:56:22.118Z,34.30
2018-01-14T06:58:49.667Z,29.80
2018-01-14T07:01:17.992Z,39.60
2018-01-14T07:03:45.540Z,35.77
2018-01-14T07:06:13.133Z,29.20
2018-01-14T07:08:41.450Z,44.43
2018-01-14T07:11:09.778Z,33.47
2018-01-14T07:13:37.344Z,43.10
2018-01-14T07:16:04.913Z,39.57
2018-01-14T07:18:33.248Z,44.43
2018-01-14T07:21:00.800Z,38.50
2018-01-14T07:23:29.128Z,33.97
2018-01-14T07:25:56.681Z,31.07
2018-01-14T07:28:25.023Z,36.90
2018-01-14T07:30:52.592Z,32.83
2018-01-14T07:33:20.194Z,44.80
2018-01-14T07:35:47.756Z,36.90
2018-01-14T07:38:16.227Z,38.57
2018-01-14T07:40:43.785Z,36.77
2018-01-14T07:43:12.125Z,41.90
2018-01-14T07:45:40.441Z,41.17
2018-01-14T07:48:08.752Z,39.60
2018-01-14T07:50:36.337Z,37.43
2018-01-14T07:53:03.911Z,31.33
2018-01-14T07:55:32.250Z,35.93
2018-01-14T07:57:59.805Z,32.57
2018-01-14T08:00:27.380Z,40.97
2018-01-14T08:02:56.228Z,34.53
2018-01-14T08:05:23.852Z,33.70
2018-01-14T08:07:51.405Z,37.47
2018-01-14T08:10:18.968Z,32.73
2018-01-14T08:12:46.555Z,32.53
2018-01-14T08:15:14.135Z,32.70
2018-01-14T08:17:41.684Z,31.70
2018-01-14T08:20:09.260Z,34.17
2018-01-14T08:22:36.860Z,38.13
2018-01-14T08:25:05.197Z,34.80
2018-01-14T08:27:32.763Z,30.53
2018-01-14T08:30:01.095Z,38.27
2018-01-14T08:32:28.672Z,41.63
2018-01-14T08:34:56.263Z,32.53
2018-01-14T08:37:23.867Z,38.43
2018-01-14T08:39:52.116Z,29.47
2018-01-14T08:42:20.478Z,30.23
2018-01-14T08:44:48.030Z,33.67
2018-01-14T08:47:15.607Z,37.37
2018-01-14T08:49:43.184Z,41.80
2018-01-14T08:52:10.753Z,36.57
2018-01-14T08:54:39.106Z,32.83
2018-01-14T08:57:06.683Z,32.90
2018-01-14T08:59:35.048Z,29.63
2018-01-14T09:02:03.270Z,30.00
2018-01-14T09:04:30.841Z,28.70
2018-01-14T09:06:58.406Z,36.03
2018-01-14T09:09:26.905Z,34.47
2018-01-14T09:11:55.221Z,32.80
2018-01-14T09:14:23.560Z,32.77
2018-01-14T09:16:51.114Z,35.73
2018-01-14T09:19:18.695Z,33.87
2018-01-14T09:21:46.248Z,30.07
2018-01-14T09:24:14.595Z,35.67
2018-01-14T09:26:42.932Z,35.07
2018-01-14T09:29:10.540Z,32.70
2018-01-14T09:31:38.096Z,35.30
2018-01-14T09:34:05.668Z,30.13
2018-01-14T09:36:33.266Z,33.47
2018-01-14T09:39:00.840Z,30.70
2018-01-14T09:41:28.396Z,38.53
2018-01-14T09:43:55.971Z,30.80
2018-01-14T09:46:23.520Z,32.23
2018-01-14T09:48:51.073Z,36.70
2018-01-14T09:51:18.695Z,28.40
2018-01-14T09:53:46.253Z,30.90
2018-01-14T09:56:13.875Z,35.30
2018-01-14T09:58:41.432Z,32.93
2018-01-14T10:01:09.773Z,34.50
2018-01-14T10:03:38.093Z,30.77
2018-01-14T10:06:05.670Z,33.87
2018-01-14T10:08:33.217Z,29.47
2018-01-14T10:11:00.786Z,32.30
2018-01-14T10:13:28.331Z,35.40
2018-01-14T10:15:56.165Z,33.90
2018-01-14T10:18:23.711Z,29.87
2018-01-14T10:20:51.286Z,32.33
2018-01-14T10:23:18.830Z,29.23
2018-01-14T10:25:46.395Z,27.40
2018-01-14T10:28:14.625Z,31.50
2018-01-14T10:30:42.977Z,27.57
2018-01-14T10:33:10.527Z,29.47
2018-01-14T10:35:38.859Z,28.33
2018-01-14T10:38:06.400Z,29.00
2018-01-14T10:40:34.706Z,30.87
2018-01-14T10:43:03.171Z,36.17
2018-01-14T10:45:31.033Z,32.07
2018-01-14T10:47:59.452Z,33.43
2018-01-14T10:50:27.139Z,38.37
2018-01-14T10:53:03.324Z,28.50
2018-01-14T10:55:36.052Z,30.80
2018-01-14T10:58:03.639Z,29.20
2018-01-14T11:00:36.986Z,27.23
2018-01-14T11:03:05.362Z,28.43
2018-01-14T11:05:33.707Z,26.07
2018-01-14T11:08:02.036Z,26.30
2018-01-14T11:10:29.581Z,25.77
2018-01-14T11:12:57.179Z,30.63
2018-01-14T11:15:24.739Z,29.50
2018-01-14T11:17:53.091Z,29.97
2018-01-14T11:20:20.639Z,32.87
2018-01-14T11:22:48.963Z,25.60
2018-01-14T11:25:16.575Z,32.73
2018-01-14T11:27:44.135Z,27.10
2018-01-14T11:30:11.675Z,35.23
2018-01-14T11:32:39.244Z,26.20
2018-01-14T11:35:06.791Z,29.30
2018-01-14T11:37:34.463Z,30.67
2018-01-14T11:40:02.018Z,34.07
2018-01-14T11:42:29.572Z,26.20
2018-01-14T11:44:57.139Z,30.60
2018-01-14T11:47:24.690Z,30.17
2018-01-14T11:49:53.010Z,32.70
2018-01-14T11:52:20.551Z,32.43
2018-01-14T11:54:48.127Z,30.83
2018-01-14T11:57:15.677Z,30.87
2018-01-14T11:59:43.242Z,28.67
2018-01-14T12:02:10.789Z,28.23
2018-01-14T12:04:38.355Z,41.43
2018-01-14T12:07:05.904Z,31.37
2018-01-14T12:09:33.467Z,28.97
2018-01-14T12:12:01.019Z,29.40
2018-01-14T12:14:29.371Z,28.50
2018-01-14T12:16:56.979Z,26.53
2018-01-14T12:19:24.535Z,30.23
2018-01-14T12:21:52.084Z,29.00
2018-01-14T12:24:20.419Z,36.70
2018-01-14T12:26:47.959Z,30.10
2018-01-14T12:29:15.498Z,34.83
2018-01-14T12:31:43.076Z,24.47
2018-01-14T12:37:12.763Z,30.57
2018-01-14T12:39:40.308Z,30.40
2018-01-14T12:42:08.690Z,28.93
2018-01-14T12:44:37.122Z,31.80
2018-01-14T12:47:05.577Z,29.80
2018-01-14T12:49:33.153Z,26.50
2018-01-14T12:52:00.721Z,28.47
2018-01-14T12:54:28.276Z,27.93
2018-01-14T12:56:56.604Z,30.60
2018-01-14T12:59:24.188Z,26.80
2018-01-14T13:01:51.815Z,26.90
2018-01-14T13:04:19.387Z,28.43
2018-01-14T13:06:46.946Z,29.47
2018-01-14T13:09:14.493Z,24.80
2018-01-14T13:11:42.054Z,31.47
2018-01-14T13:14:09.605Z,31.17
2018-01-14T13:16:37.153Z,32.23
2018-01-14T13:19:05.733Z,32.43
2018-01-14T13:21:33.360Z,26.30
2018-01-14T13:24:01.048Z,28.73
2018-01-14T13:26:28.610Z,35.50
2018-01-14T13:28:57.044Z,27.97
2018-01-14T13:31:24.597Z,33.03
2018-01-14T13:33:53.028Z,27.37
2018-01-14T13:36:20.626Z,27.63
2018-01-14T13:38:48.309Z,31.70
2018-01-14T13:41:15.990Z,32.10
2018-01-14T13:43:43.563Z,24.80
2018-01-14T13:46:11.261Z,30.30
2018-01-14T13:48:39.043Z,28.00
2018-01-14T13:51:06.893Z,31.30
2018-01-14T13:53:34.437Z,31.00
2018-01-14T13:56:11.263Z,28.53
2018-01-14T13:58:38.829Z,27.63
2018-01-14T14:01:06.453Z,23.20
2018-01-14T14:03:34.034Z,28.83
2018-01-14T14:06:01.633Z,28.80
2018-01-14T14:08:29.179Z,30.67
2018-01-14T14:10:56.731Z,28.77
2018-01-14T14:13:24.367Z,30.60
2018-01-14T14:15:51.991Z,29.97
2018-01-14T14:18:20.295Z,26.23
2018-01-14T14:20:47.877Z,26.37
2018-01-14T14:23:15.442Z,26.43
2018-01-14T14:25:43.018Z,30.50
2018-01-14T14:28:11.351Z,31.83
2018-01-14T14:30:43.878Z,27.00
2018-01-14T14:33:15.847Z,27.83
2018-01-14T14:35:43.399Z,28.37
2018-01-14T14:38:10.963Z,23.27
2018-01-14T14:40:38.542Z,27.70
2018-01-14T14:43:06.140Z,31.03
2018-01-14T14:45:33.723Z,26.53
2018-01-14T14:48:02.282Z,32.20
2018-01-14T14:50:29.836Z,29.90
2018-01-14T14:52:57.402Z,37.27
2018-01-14T14:55:24.956Z,29.57
2018-01-14T14:57:52.527Z,32.70
2018-01-14T15:00:20.218Z,31.20
2018-01-14T15:02:47.793Z,29.73
2018-01-14T15:05:17.082Z,31.40
2018-01-14T15:07:44.641Z,32.13
2018-01-14T15:10:12.195Z,33.00
2018-01-14T15:12:39.736Z,33.73
2018-01-14T15:15:07.306Z,26.80
2018-01-14T15:17:34.842Z,30.90
2018-01-14T15:20:02.404Z,29.63
2018-01-14T15:22:30.720Z,31.73
2018-01-14T15:24:59.109Z,31.70
2018-01-14T15:27:27.422Z,33.73
2018-01-14T15:29:55.746Z,32.17
2018-01-14T15:32:23.297Z,31.50
2018-01-14T15:34:51.627Z,31.63
2018-01-14T15:37:19.200Z,30.80
2018-01-14T15:39:46.771Z,35.13
2018-01-14T15:42:15.095Z,31.67
2018-01-14T15:44:42.658Z,34.10
2018-01-14T15:47:10.976Z,32.90
2018-01-14T15:49:38.533Z,33.53
2018-01-14T15:52:06.091Z,34.83
2018-01-14T15:54:33.845Z,37.70
2018-01-14T15:57:01.431Z,31.60
2018-01-14T15:59:28.971Z,35.37
2018-01-14T16:01:57.327Z,39.63
2018-01-14T16:04:24.887Z,33.67
2018-01-14T16:06:52.443Z,34.90
2018-01-14T16:09:20.487Z,41.40
2018-01-14T16:11:48.665Z,36.63
2018-01-14T16:14:16.208Z,43.27
2018-01-14T16:16:43.767Z,42.30
2018-01-14T16:19:11.315Z,37.97
2018-01-14T16:21:39.671Z,34.93
2018-01-14T16:24:07.215Z,37.73
2018-01-14T16:26:34.787Z,42.70
2018-01-14T16:29:03.100Z,36.87
2018-01-14T16:31:30.634Z,41.63
2018-01-14T16:33:58.265Z,39.90
2018-01-14T16:36:26.555Z,41.00
2018-01-14T16:38:54.131Z,40.40
2018-01-14T16:41:22.446Z,41.93
2018-01-14T16:43:50.779Z,35.83
2018-01-14T16:46:18.318Z,38.47
2018-01-14T16:48:46.663Z,49.73
2018-01-14T16:51:14.238Z,43.47
2018-01-14T16:53:41.790Z,42.40
2018-01-14T16:56:10.103Z,39.50
2018-01-14T16:58:38.427Z,39.40
2018-01-14T17:01:05.972Z,36.37
2018-01-14T17:03:34.299Z,40.73
2018-01-14T17:06:01.951Z,37.83
2018-01-14T17:08:29.511Z,40.90
2018-01-14T17:10:57.083Z,38.63
2018-01-14T17:13:24.643Z,42.73
2018-01-14T17:15:52.186Z,44.43
2018-01-14T17:18:19.751Z,41.70
2018-01-14T17:20:47.293Z,42.83
2018-01-14T17:23:14.827Z,39.93
2018-01-14T17:25:42.385Z,41.60
2018-01-14T17:28:10.627Z,45.13
2018-01-14T17:30:38.961Z,37.27
2018-01-14T17:33:06.500Z,39.13
2018-01-14T17:35:34.055Z,40.00
2018-01-14T17:38:01.775Z,40.97
2018-01-14T17:40:29.335Z,38.57
2018-01-14T17:42:56.874Z,36.63
2018-01-14T17:45:24.439Z,39.83
2018-01-14T17:48:02.793Z,45.77
2018-01-14T17:50:36.050Z,42.20
2018-01-14T17:53:09.134Z,39.03
2018-01-14T17:55:44.796Z,33.63
2018-01-14T17:58:20.336Z,45.10
2018-01-14T18:00:52.102Z,30.37
2018-01-14T18:03:26.115Z,38.90
2018-01-14T18:05:57.935Z,40.67
2018-01-14T18:08:27.126Z,35.90
2018-01-14T18:11:00.468Z,90.80
2018-01-14T18:13:31.999Z,49.93
2018-01-14T18:16:02.851Z,49.00
2018-01-14T18:18:30.416Z,43.73
2018-01-14T18:21:00.973Z,41.73
2018-01-14T18:23:29.663Z,36.20
2018-01-14T18:25:57.211Z,35.00
2018-01-14T18:28:24.776Z,34.47
2018-01-14T18:30:52.420Z,34.87
2018-01-14T18:33:26.033Z,35.17
2018-01-14T18:35:53.566Z,35.97
2018-01-14T18:38:21.882Z,32.50
2018-01-14T18:40:54.571Z,40.40
2018-01-14T18:43:27.273Z,35.70
2018-01-14T18:46:09.376Z,31.77
2018-01-14T18:48:37.087Z,31.53
2018-01-14T18:51:05.404Z,32.43
2018-01-14T18:53:33.722Z,33.80
2018-01-14T18:56:01.254Z,37.90
2018-01-14T18:58:28.819Z,32.83
2018-01-14T19:00:56.396Z,34.20
2018-01-14T19:03:23.985Z,35.97
2018-01-14T19:05:51.559Z,39.13
2018-01-14T19:08:19.118Z,39.57
2018-01-14T19:10:46.667Z,32.30
2018-01-14T19:13:17.306Z,31.97
2018-01-14T19:15:49.439Z,31.60
2018-01-14T19:18:18.093Z,33.73
2018-01-14T19:20:45.641Z,39.63
2018-01-14T19:23:13.181Z,33.33
2018-01-14T19:25:40.738Z,35.40
2018-01-14T19:28:08.283Z,30.67
2018-01-14T19:30:36.670Z,27.60
2018-01-14T19:33:04.212Z,32.63
2018-01-14T19:35:31.772Z,33.00
2018-01-14T19:37:59.312Z,33.83
2018-01-14T19:40:26.888Z,31.30
2018-01-14T19:42:54.448Z,34.03
2018-01-14T19:45:22.024Z,31.00
2018-01-14T19:47:53.478Z,41.00
2018-01-14T19:50:21.649Z,33.90
2018-01-14T19:52:49.200Z,35.37
2018-01-14T19:55:16.790Z,34.17
2018-01-14T19:57:44.340Z,35.70
2018-01-14T20:00:11.965Z,32.83
2018-01-14T20:02:39.532Z,32.07
2018-01-14T20:05:07.076Z,38.93
2018-01-14T20:07:35.412Z,35.73
2018-01-14T20:10:02.996Z,38.60
2018-01-14T20:12:30.563Z,28.83
2018-01-14T20:14:58.122Z,33.50
2018-01-14T20:17:26.477Z,37.97
2018-01-14T20:19:54.036Z,41.17
2018-01-14T20:22:21.595Z,31.57
2018-01-14T20:24:49.207Z,35.00
2018-01-14T20:27:16.759Z,33.90
2018-01-14T20:29:44.304Z,34.63
2018-01-14T20:32:11.884Z,32.50
2018-01-14T20:34:39.467Z,38.10
2018-01-14T20:37:07.018Z,44.33
2018-01-14T20:39:34.579Z,36.20
2018-01-14T20:42:02.184Z,37.50
2018-01-14T20:44:30.554Z,36.97
2018-01-14T20:47:03.805Z,36.67
2018-01-14T20:49:35.997Z,37.20
2018-01-14T20:52:03.687Z,36.33
2018-01-14T20:54:32.116Z,34.40
2018-01-14T20:56:59.730Z,35.27
2018-01-14T20:59:27.307Z,42.57
2018-01-14T21:01:54.840Z,36.07
2018-01-14T21:04:26.756Z,37.57
2018-01-14T21:06:54.304Z,35.87
2018-01-14T21:09:21.871Z,33.97
2018-01-14T21:11:49.415Z,40.03
2018-01-14T21:14:17.042Z,40.10
2018-01-14T21:16:44.603Z,42.53
2018-01-14T21:19:12.134Z,38.83
2018-01-14T21:21:40.455Z,36.87
2018-01-14T21:24:07.997Z,42.40
2018-01-14T21:26:35.562Z,43.07
2018-01-14T21:29:03.108Z,37.87
2018-01-14T21:31:31.579Z,43.00
2018-01-14T21:33:59.124Z,43.53
2018-01-14T21:36:26.687Z,46.20
2018-01-14T21:38:54.227Z,39.17
2018-01-14T21:41:21.795Z,38.33
2018-01-14T21:43:49.331Z,44.00
2018-01-14T21:46:16.895Z,40.37
2018-01-14T21:48:45.208Z,39.67
2018-01-14T21:51:13.538Z,44.80
2018-01-14T21:53:41.081Z,40.80
2018-01-14T21:56:08.649Z,38.07
2018-01-14T21:58:36.200Z,44.13
2018-01-14T22:01:03.759Z,41.10
2018-01-14T22:03:31.300Z,47.87
2018-01-14T22:05:58.953Z,45.07
2018-01-14T22:08:27.293Z,50.67
2018-01-14T22:10:54.831Z,42.83
2018-01-14T22:13:22.391Z,39.90
2018-01-14T22:15:50.702Z,43.27
2018-01-14T22:18:18.263Z,46.53
2018-01-14T22:20:46.576Z,50.57
2018-01-14T22:23:14.899Z,54.17
2018-01-14T22:25:42.439Z,44.87
2018-01-14T22:28:10.040Z,39.40
2018-01-14T22:30:38.351Z,41.53
2018-01-14T22:33:06.681Z,44.97
2018-01-14T22:35:34.223Z,45.87
2018-01-14T22:38:01.781Z,48.83
2018-01-14T22:40:29.333Z,50.50
2018-01-14T22:42:56.903Z,47.30
2018-01-14T22:45:24.450Z,40.80
2018-01-14T22:47:52.002Z,46.17
2018-01-14T22:50:19.540Z,44.10
2018-01-14T22:52:47.851Z,46.20
2018-01-14T22:55:15.412Z,46.60
2018-01-14T22:57:43.724Z,38.87
2018-01-14T23:00:12.752Z,53.10
2018-01-14T23:02:41.063Z,44.73
2018-01-14T23:05:08.634Z,41.53
2018-01-14T23:07:36.943Z,41.50
2018-01-14T23:10:04.508Z,39.90
2018-01-14T23:12:32.814Z,39.27
2018-01-14T23:15:06.980Z,42.10
2018-01-14T23:17:34.520Z,47.47
2018-01-14T23:20:02.085Z,41.40
2018-01-14T23:22:29.685Z,47.43
2018-01-14T23:24:57.227Z,46.63
2018-01-14T23:27:24.774Z,43.03
2018-01-14T23:29:53.102Z,41.70
2018-01-14T23:32:20.645Z,47.90
2018-01-14T23:34:48.213Z,42.90
2018-01-14T23:37:15.756Z,44.33
2018-01-14T23:39:43.291Z,42.20
2018-01-14T23:42:10.852Z,42.93
2018-01-14T23:44:38.396Z,53.13
2018-01-14T23:47:05.959Z,49.23
2018-01-14T23:49:34.273Z,38.90
2018-01-14T23:52:02.614Z,45.90
2018-01-14T23:54:30.159Z,39.00
2018-01-14T23:56:58.483Z,49.53
2018-01-14T23:59:26.024Z,48.07
